Time;durP1;ratioP1;P1;durP2;ratioP2;P2;SDS_P1;SDS_P2;PMS_P1;PMS_P2;Temp;Humidity;BMP_temperature;BMP_pressure;BME280_temperature;BME280_humidity;BME280_pressure;Samples;Min_cycle;Max_cycle;Signal;HPM_P1;HPM_P2
2023/11/09 00:00:42;;;;;;;6.35;2.00;;;;;;;;;;6201362;23;20005;-81
2023/11/09 00:03:09;;;;;;;4.45;1.92;;;;;;;;;;6227442;23;20005;-82
2023/11/09 00:05:35;;;;;;;5.72;2.03;;;;;;;;;;6201842;23;20160;-82
2023/11/09 00:08:02;;;;;;;4.78;1.80;;;;;;;;;;6230212;23;20032;-82
2023/11/09 00:10:31;;;;;;;4.93;2.10;;;;;;;;;;6224756;23;19997;-81
2023/11/09 00:12:58;;;;;;;5.13;1.88;;;;;;;;;;6224123;23;20091;-80
2023/11/09 00:15:27;;;;;;;4.32;1.85;;;;;;;;;;6199386;23;20040;-81
2023/11/09 00:18:21;;;;;;;4.45;1.80;;;;;;;;;;6221697;23;20012;-81
2023/11/09 00:20:54;;;;;;;5.28;2.10;;;;;;;;;;6194028;23;20016;-82
2023/11/09 00:23:21;;;;;;;11.63;2.60;;;;;;;;;;6194266;23;20009;-82
2023/11/09 00:25:51;;;;;;;3.80;2.00;;;;;;;;;;6216983;23;20009;-82
2023/11/09 00:28:19;;;;;;;4.97;1.90;;;;;;;;;;6217190;23;20502;-82
2023/11/09 00:30:45;;;;;;;4.38;1.92;;;;;;;;;;6193723;23;20040;-82
2023/11/09 00:33:12;;;;;;;6.25;1.88;;;;;;;;;;6193189;23;20020;-82
2023/11/09 00:35:43;;;;;;;3.45;1.80;;;;;;;;;;6191331;23;20328;-81
2023/11/09 00:38:14;;;;;;;3.90;2.08;;;;;;;;;;6215649;23;20001;-81
2023/11/09 00:41:08;;;;;;;4.63;1.85;;;8.30;99.90;;;;;;6195014;23;20023;-81
2023/11/09 00:43:35;;;;;;;5.53;2.10;;;;;;;;;;6192649;23;20454;-81
2023/11/09 00:46:02;;;;;;;3.30;1.83;;;;;;;;;;6192293;23;20013;-80
2023/11/09 00:48:31;;;;;;;4.35;2.10;;;;;;;;;;6191763;23;20005;-80
2023/11/09 00:50:58;;;;;;;3.53;1.83;;;;;;;;;;6192131;23;20001;-81
2023/11/09 00:53:25;;;;;;;3.90;1.92;;;;;;;;;;6216522;23;20008;-81
2023/11/09 00:55:51;;;;;;;3.78;1.83;;;;;;;;;;6215475;23;20073;-80
2023/11/09 00:58:23;;;;;;;3.97;2.00;;;;;;;;;;6190039;23;20020;-80
2023/11/09 01:00:53;;;;;;;4.70;2.13;;;;;;;;;;6187831;23;20021;-81
2023/11/09 01:03:20;;;;;;;2.75;1.60;;;;;;;;;;6191556;23;20016;-81
2023/11/09 01:05:48;;;;;;;4.75;2.20;;;;;;;;;;6187968;23;20327;-81
2023/11/09 01:08:21;;;;;;;4.55;2.45;;;;;;;;;;6189355;23;20013;-82
2023/11/09 01:13:23;;;;;;;8.15;1.70;;;;;;;;;;6132928;23;20081;-82
2023/11/09 01:15:49;;;;;;;2.95;1.60;;;8.30;99.90;;;;;;6189559;23;20005;-83
2023/11/09 01:18:15;;;;;;;3.55;1.70;;;8.30;99.90;;;;;;6189310;23;20020;-86
2023/11/09 01:20:41;;;;;;;5.45;1.80;;;8.20;99.90;;;;;;6187464;23;20013;-88
2023/11/09 01:23:09;;;;;;;3.92;1.80;;;;;;;;;;6187507;23;20015;-86
2023/11/09 01:25:35;;;;;;;3.22;1.67;;;8.30;99.90;;;;;;6211602;23;20163;-86
2023/11/09 01:28:02;;;;;;;3.65;1.70;;;;;;;;;;6210664;23;20025;-85
2023/11/09 01:30:29;;;;;;;4.63;1.88;;;8.30;99.90;;;;;;6188212;23;19997;-88
2023/11/09 01:32:56;;;;;;;5.43;1.73;;;8.30;99.90;;;;;;6212654;23;20005;-88
2023/11/09 01:35:22;;;;;;;3.92;1.55;;;8.30;99.90;;;;;;6186821;23;20015;-84
2023/11/09 01:37:51;;;;;;;3.80;1.70;;;8.30;99.90;;;;;;6188803;23;20005;-87
2023/11/09 01:40:18;;;;;;;3.65;1.63;;;8.30;99.90;;;;;;6210923;23;20004;-86
2023/11/09 01:42:44;;;;;;;3.58;1.58;;;8.40;99.90;;;;;;6212729;23;20040;-86
2023/11/09 01:45:10;;;;;;;3.85;1.50;;;8.40;99.90;;;;;;6189576;23;20001;-86
2023/11/09 01:47:37;;;;;;;4.38;1.55;;;8.50;99.90;;;;;;6212618;23;20069;-81
2023/11/09 01:50:09;;;;;;;4.13;1.45;;;8.40;99.90;;;;;;6161491;23;20432;-83
2023/11/09 01:52:51;;;;;;;5.70;1.60;;;8.40;99.90;;;;;;6179613;23;20635;-87
2023/11/09 01:55:40;;;;;;;3.50;1.48;;;8.40;99.90;;;;;;6185939;23;20009;-88
2023/11/09 01:58:09;;;;;;;3.33;1.60;;;8.40;99.90;;;;;;6160662;23;20016;-84
2023/11/09 02:00:38;;;;;;;3.33;1.50;;;8.40;99.90;;;;;;6186862;23;20013;-85
2023/11/09 02:03:17;;;;;;;4.05;1.52;;;8.40;99.90;;;;;;6187987;23;20007;-85
2023/11/09 02:05:46;;;;;;;3.22;1.42;;;8.40;99.90;;;;;;6176123;23;20005;-83
2023/11/09 02:08:17;;;;;;;2.65;1.42;;;8.40;99.90;;;;;;6210961;23;20008;-82
2023/11/09 02:10:46;;;;;;;2.78;1.50;;;8.40;99.90;;;;;;6210306;23;20008;-86
2023/11/09 02:13:15;;;;;;;4.40;1.85;;;8.40;99.90;;;;;;6161218;23;20063;-86
2023/11/09 02:15:41;;;;;;;3.30;1.50;;;;;;;;;;6162928;23;20020;-84
2023/11/09 02:18:16;;;;;;;3.83;1.80;;;8.40;99.90;;;;;;6186846;23;20033;-84
2023/11/09 02:20:43;;;;;;;;;;;8.40;99.90;;;;;;6167903;23;20017;-85
2023/11/09 02:23:14;;;;;;;3.65;1.70;;;8.40;99.90;;;;;;6167799;23;19987;-85
2023/11/09 02:25:43;;;;;;;4.18;1.80;;;8.40;99.90;;;;;;6166623;23;20009;-84
2023/11/09 02:28:13;;;;;;;2.45;1.48;;;8.40;99.90;;;;;;6211936;23;20017;-88
2023/11/09 02:30:43;;;;;;;3.75;1.70;;;8.30;99.90;;;;;;6189594;23;20058;-87
2023/11/09 02:33:13;;;;;;;3.88;1.77;;;8.30;99.90;;;;;;6164814;23;20009;-86
2023/11/09 02:35:40;;;;;;;;;;;8.30;99.90;;;;;;6213274;23;20032;-85
2023/11/09 02:38:11;;;;;;;3.38;1.60;;;8.20;99.90;;;;;;6187954;23;19911;-84
2023/11/09 02:40:39;;;;;;;4.45;1.67;;;8.30;99.90;;;;;;6185618;23;20821;-87
2023/11/09 02:43:40;;;;;;;2.70;1.38;;;8.30;99.90;;;;;;6189358;23;20076;-84
2023/11/09 02:46:20;;;;;;;2.47;1.50;;;8.40;99.90;;;;;;6189429;23;20005;-86
2023/11/09 02:48:47;;;;;;;4.90;1.60;;;8.40;99.90;;;;;;6187657;23;20013;-84
2023/11/09 02:51:16;;;;;;;3.65;1.73;;;8.50;99.90;;;;;;6186100;23;20009;-84
2023/11/09 02:53:46;;;;;;;4.18;1.88;;;;;;;;;;6189138;23;20420;-83
2023/11/09 02:56:17;;;;;;;3.22;1.40;;;8.60;99.90;;;;;;6194815;23;20013;-85
2023/11/09 02:58:48;;;;;;;2.55;1.50;;;;;;;;;;6214323;23;20084;-81
2023/11/09 03:01:56;;;;;;;2.75;1.35;;;8.60;99.90;;;;;;6195654;23;20008;-87
2023/11/09 03:04:24;;;;;;;3.72;1.60;;;8.70;99.90;;;;;;6166752;23;20017;-84
2023/11/09 03:07:13;;;;;;;3.88;1.60;;;8.70;99.90;;;;;;6192811;23;20009;-83
2023/11/09 03:09:44;;;;;;;3.72;1.73;;;8.70;99.90;;;;;;6213720;23;20052;-84
2023/11/09 03:12:12;;;;;;;2.50;1.15;;;;;;;;;;6188048;23;20388;-85
2023/11/09 03:14:42;;;;;;;4.38;1.83;;;8.70;99.90;;;;;;6214700;23;20032;-86
2023/11/09 03:17:13;;;;;;;;;;;8.70;99.90;;;;;;6192410;23;20001;-84
2023/11/09 03:20:09;;;;;;;2.80;1.20;;;8.80;99.90;;;;;;6189908;23;19900;-89
2023/11/09 03:22:47;;;;;;;2.63;1.40;;;8.80;99.90;;;;;;6190467;23;20013;-89
2023/11/09 03:25:16;;;;;;;2.65;1.40;;;8.80;99.90;;;;;;6214564;23;20005;-86
2023/11/09 03:28:11;;;;;;;4.18;1.60;;;8.80;99.90;;;;;;6190779;23;20005;-85
2023/11/09 03:30:55;;;;;;;3.88;1.35;;;8.90;99.90;;;;;;6213618;23;20028;-86
2023/11/09 03:33:44;;;;;;;3.20;1.42;;;8.90;99.90;;;;;;6189375;23;20111;-87
2023/11/09 03:36:37;;;;;;;2.85;1.48;;;8.90;99.90;;;;;;6189869;23;20021;-86
2023/11/09 03:39:19;;;;;;;3.15;1.40;;;8.90;99.90;;;;;;6188361;23;20005;-85
2023/11/09 03:41:51;;;;;;;4.05;1.45;;;8.90;99.90;;;;;;6189492;23;20016;-85
2023/11/09 03:44:26;;;;;;;5.05;1.52;;;8.90;99.90;;;;;;6163493;23;20009;-83
2023/11/09 03:46:57;;;;;;;2.75;1.35;;;9.00;99.90;;;;;;6182510;23;20345;-86
2023/11/09 03:49:26;;;;;;;9.25;1.75;;;8.90;99.90;;;;;;6212552;23;20021;-89
2023/11/09 03:52:14;;;;;;;2.28;1.40;;;9.00;99.90;;;;;;6215462;23;20005;-89
2023/11/09 03:54:44;;;;;;;2.72;1.30;;;9.00;99.90;;;;;;6214318;23;20009;-85
2023/11/09 03:57:16;;;;;;;9.25;1.75;;;9.00;99.90;;;;;;6214740;23;20076;-88
2023/11/09 03:59:48;;;;;;;3.35;1.35;;;9.00;99.90;;;;;;6163733;23;20016;-89
2023/11/09 04:02:37;;;;;;;4.65;1.40;;;9.00;99.90;;;;;;6190265;23;20005;-82
2023/11/09 04:05:13;;;;;;;4.20;1.30;;;9.00;99.90;;;;;;6168243;23;20084;-88
2023/11/09 04:07:47;;;;;;;3.53;1.40;;;9.00;99.90;;;;;;6191908;23;20013;-89
2023/11/09 04:10:27;;;;;;;3.83;1.48;;;9.10;99.90;;;;;;6181722;23;20389;-88
2023/11/09 04:13:00;;;;;;;3.25;1.50;;;9.10;99.90;;;;;;6190488;23;20420;-86
2023/11/09 04:15:48;;;;;;;2.05;1.25;;;9.10;99.90;;;;;;6167485;23;20021;-89
2023/11/09 04:18:45;;;;;;;2.80;1.40;;;9.10;99.90;;;;;;6165359;23;20029;-85
2023/11/09 04:21:16;;;;;;;2.78;1.50;;;9.10;99.90;;;;;;6191640;23;20063;-85
2023/11/09 04:23:57;;;;;;;5.00;1.58;;;9.10;99.90;;;;;;6189391;23;20001;-86
2023/11/09 04:26:45;;;;;;;3.75;1.60;;;9.10;99.90;;;;;;6191600;23;20009;-87
2023/11/09 04:29:17;;;;;;;4.18;1.38;;;9.20;99.90;;;;;;6214915;23;20040;-84
2023/11/09 04:31:47;;;;;;;2.58;1.30;;;9.20;99.90;;;;;;6190964;23;20005;-86
2023/11/09 04:34:58;;;;;;;3.25;1.50;;;9.20;99.90;;;;;;6191291;23;20000;-87
2023/11/09 04:37:32;;;;;;;3.65;1.50;;;9.20;99.90;;;;;;6172609;23;20016;-87
2023/11/09 04:40:12;;;;;;;4.05;1.50;;;9.20;99.90;;;;;;6166708;23;20056;-86
2023/11/09 04:42:46;;;;;;;5.93;1.75;;;9.20;99.90;;;;;;6191718;23;20009;-87
2023/11/09 04:45:26;;;;;;;3.45;1.50;;;9.20;99.90;;;;;;6192643;23;20005;-85
2023/11/09 04:48:07;;;;;;;4.10;1.70;;;9.20;99.90;;;;;;6163580;23;20072;-86
2023/11/09 04:50:40;;;;;;;3.85;1.63;;;9.20;99.90;;;;;;6168512;23;20403;-89
2023/11/09 04:53:41;;;;;;;2.88;1.63;;;9.20;99.90;;;;;;6191471;23;20056;-84
2023/11/09 04:56:19;;;;;;;2.92;1.50;;;9.10;99.90;;;;;;6169806;23;20055;-87
2023/11/09 05:06:48;;;;;;;3.83;1.60;;;9.10;99.90;;;;;;6134682;23;20095;-84
2023/11/09 05:07:19;;;;;;;2.50;1.50;;;;;;;;;;6190226;23;20047;-81
2023/11/09 05:09:46;;;;;;;2.67;1.60;;;;;;;;;;6191367;23;20008;-81
2023/11/09 05:12:16;;;;;;;3.03;1.52;;;;;;;;;;6191085;23;20064;-81
2023/11/09 05:14:50;;;;;;;3.55;1.52;;;;;;;;;;6225117;23;20083;-81
2023/11/09 05:17:31;;;;;;;2.72;1.50;;;8.70;99.90;;;;;;6198469;23;20028;-82
2023/11/09 05:20:47;;;;;;;3.35;1.45;;;8.80;99.90;;;;;;6197480;23;20005;-81
2023/11/09 05:23:16;;;;;;;4.70;1.80;;;;;;;;;;6220646;23;20008;-81
2023/11/09 05:25:52;;;;;;;2.67;1.70;;;8.70;99.90;;;;;;6219139;23;20016;-81
2023/11/09 05:28:23;;;;;;;3.58;1.88;;;;;;;;;;6167400;23;20088;-81
2023/11/09 05:30:51;;;;;;;3.58;1.90;;;;;;;;;;6192579;23;20024;-82
2023/11/09 05:33:21;;;;;;;6.10;2.00;;;;;;;;;;6192019;23;20001;-81
2023/11/09 05:35:52;;;;;;;2.60;1.58;;;8.60;99.90;;;;;;6187827;23;20009;-82
2023/11/09 05:38:23;;;;;;;3.35;1.90;;;;;;;;;;6195529;23;20032;-81
2023/11/09 05:40:55;;;;;;;4.88;2.08;;;;;;;;;;6196563;23;20009;-82
2023/11/09 05:53:30;;;;;;;4.75;2.17;;;8.60;99.90;;;;;;6107681;23;20041;-83
2023/11/09 06:10:32;;;;;;;3.92;1.63;;;8.60;99.90;;;;;;5960056;24;20172;-82
2023/11/09 06:13:12;;;;;;;3.40;1.90;;;8.60;99.90;;;;;;6058736;23;20093;-82
2023/11/09 06:15:43;;;;;;;3.55;1.80;;;8.60;99.90;;;;;;6155822;23;20065;-82
2023/11/09 06:18:12;;;;;;;4.90;1.65;;;8.60;99.90;;;;;;6163146;23;20032;-82
2023/11/09 06:20:38;;;;;;;4.28;1.77;;;;;;;;;;6163415;23;20073;-80
2023/11/09 06:23:05;;;;;;;5.47;1.95;;;8.60;99.90;;;;;;6190586;23;20025;-80
2023/11/09 06:26:25;;;;;;;4.80;2.10;;;8.60;99.90;;;;;;6164810;23;20008;-83
2023/11/09 06:30:18;;;;;;;3.60;1.70;;;8.60;99.90;;;;;;6173445;23;20024;-83
2023/11/09 06:33:59;;;;;;;4.60;2.05;;;8.60;99.90;;;;;;6141291;23;20021;-83
2023/11/09 06:37:08;;;;;;;4.13;1.60;;;8.60;99.90;;;;;;6140223;23;20014;-83
2023/11/09 06:40:10;;;;;;;;;;;8.60;99.90;;;;;;6142842;23;20125;-82
2023/11/09 10:12:55;;;;;;;4.32;2.78;;;10.00;99.90;;;;;;6229069;23;20125;-86
2023/11/09 19:06:04;;;;;;;3.90;1.70;;;9.70;99.90;;;;;;6192923;23;20029;-88
